Euro IV — IQNH — position and weather

sailwx.info

Track history (hours):
 
Tides and Currents Weather Stations Pressure Air Temp Water Temp Dewpoint Dewpoint Depression Visibility Wind Speed Wind Dir Waves Ship Positions

Euro IV

Last reported at 2015-Apr-01 13:04 UTC. Time now 2015-Apr-02 00:13 UTC.
Position N 44°06' E 009°49'.

Length 25 m; draft 1.3 m.

Type: Passenger vessel. MMSI: 247131500.

Date/timePositionNaut miles runAvg speedWind from/ knotsBaromVisibWave heightAir tempDewpointWater temp
2015-Apr-01 13:04N 44°06' E 009°49'0 0.0
2015-Apr-01 12:33N 44°06' E 009°49'0 0.0
2015-Apr-01 11:34N 44°06' E 009°49'0 0.0
2015-Apr-01 10:34N 44°06' E 009°49'0 0.0
2015-Apr-01 09:33N 44°06' E 009°49'0 0.0
2015-Apr-01 08:33N 44°06' E 009°49'0 0.0
2015-Apr-01 07:33N 44°06' E 009°49'  
2015-Mar-29 06:23N 44°06' E 009°50'3 0.2
2015-Mar-28 17:33N 44°03' E 009°48'4 3.5
2015-Mar-28 16:30N 44°06' E 009°44'5 5.5
2015-Mar-28 15:33N 44°03' E 009°50'4 4.4
2015-Mar-28 14:33N 44°05' E 009°45'5 5.4
2015-Mar-28 13:33N 44°09' E 009°39'0 0.0
2015-Mar-28 12:33N 44°09' E 009°39'4 4.0
2015-Mar-28 11:26N 44°06' E 009°44'5 5.4
2015-Mar-28 10:33N 44°05' E 009°51'1 1.2
2015-Mar-28 09:33N 44°06' E 009°50'0 0.0
2015-Mar-28 08:33N 44°06' E 009°49'0 0.0
2015-Mar-28 07:33N 44°06' E 009°49'0 0.0
2015-Mar-27 15:27N 44°06' E 009°49'0 0.0
2015-Mar-27 14:34N 44°06' E 009°49'0 0.0
2015-Mar-27 13:33N 44°06' E 009°49'0 0.0
2015-Mar-27 12:34N 44°06' E 009°49'0 0.0
2015-Mar-27 11:33N 44°06' E 009°49'0 0.0
2015-Mar-27 10:33N 44°06' E 009°49'0 0.0
2015-Mar-27 09:34N 44°06' E 009°49'0 0.0
2015-Mar-27 08:33N 44°06' E 009°49'0 0.0
2015-Mar-26 15:26N 44°06' E 009°49'0 0.0
2015-Mar-26 14:33N 44°06' E 009°49'0 0.0
2015-Mar-26 13:33N 44°06' E 009°49'0 0.0
2015-Mar-26 12:33N 44°06' E 009°49'0 0.0
2015-Mar-26 11:33N 44°06' E 009°49'0 0.0
2015-Mar-26 10:33N 44°06' E 009°49'0 0.0
2015-Mar-26 09:33N 44°06' E 009°49'0 0.0
2015-Mar-26 08:33N 44°06' E 009°49'1 0.0
2015-Mar-25 14:33N 44°06' E 009°50'8 7.9
2015-Mar-25 13:30N 44°09' E 009°39'0 0.0
2015-Mar-25 11:33N 44°09' E 009°39'1 1.2
2015-Mar-25 10:28N 44°08' E 009°41'9 9.5
2015-Mar-25 09:33N 44°03' E 009°51'3 2.9
2015-Mar-25 08:33N 44°06' E 009°49'  
Track history (hours):
 
Tides and Currents Weather Stations Pressure Air Temp Water Temp Dewpoint Dewpoint Depression Visibility Wind Speed Wind Dir Waves Ship Positions

Euro IV

Last reported at 2015-Apr-01 13:04 UTC. Time now 2015-Apr-02 00:13 UTC.
Position N 44°06' E 009°49'.

Length 25 m; draft 1.3 m.

Type: Passenger vessel. MMSI: 247131500.

Date/timePositionNaut miles runAvg speedWind from/ knotsBaromVisibWave heightAir tempDewpointWater temp
2015-Apr-01 13:04N 44°06' E 009°49'0 0.0
2015-Apr-01 12:33N 44°06' E 009°49'0 0.0
2015-Apr-01 11:34N 44°06' E 009°49'0 0.0
2015-Apr-01 10:34N 44°06' E 009°49'0 0.0
2015-Apr-01 09:33N 44°06' E 009°49'0 0.0
2015-Apr-01 08:33N 44°06' E 009°49'0 0.0
2015-Apr-01 07:33N 44°06' E 009°49'  
2015-Mar-29 06:23N 44°06' E 009°50'3 0.2
2015-Mar-28 17:33N 44°03' E 009°48'4 3.5
2015-Mar-28 16:30N 44°06' E 009°44'5 5.5
2015-Mar-28 15:33N 44°03' E 009°50'4 4.4
2015-Mar-28 14:33N 44°05' E 009°45'5 5.4
2015-Mar-28 13:33N 44°09' E 009°39'0 0.0
2015-Mar-28 12:33N 44°09' E 009°39'4 4.0
2015-Mar-28 11:26N 44°06' E 009°44'5 5.4
2015-Mar-28 10:33N 44°05' E 009°51'1 1.2
2015-Mar-28 09:33N 44°06' E 009°50'0 0.0
2015-Mar-28 08:33N 44°06' E 009°49'0 0.0
2015-Mar-28 07:33N 44°06' E 009°49'0 0.0
2015-Mar-27 15:27N 44°06' E 009°49'0 0.0
2015-Mar-27 14:34N 44°06' E 009°49'0 0.0
2015-Mar-27 13:33N 44°06' E 009°49'0 0.0
2015-Mar-27 12:34N 44°06' E 009°49'0 0.0
2015-Mar-27 11:33N 44°06' E 009°49'0 0.0
2015-Mar-27 10:33N 44°06' E 009°49'0 0.0
2015-Mar-27 09:34N 44°06' E 009°49'0 0.0
2015-Mar-27 08:33N 44°06' E 009°49'0 0.0
2015-Mar-26 15:26N 44°06' E 009°49'0 0.0
2015-Mar-26 14:33N 44°06' E 009°49'0 0.0
2015-Mar-26 13:33N 44°06' E 009°49'0 0.0
2015-Mar-26 12:33N 44°06' E 009°49'0 0.0
2015-Mar-26 11:33N 44°06' E 009°49'0 0.0
2015-Mar-26 10:33N 44°06' E 009°49'0 0.0
2015-Mar-26 09:33N 44°06' E 009°49'0 0.0
2015-Mar-26 08:33N 44°06' E 009°49'1 0.0
2015-Mar-25 14:33N 44°06' E 009°50'8 7.9
2015-Mar-25 13:30N 44°09' E 009°39'0 0.0
2015-Mar-25 11:33N 44°09' E 009°39'1 1.2
2015-Mar-25 10:28N 44°08' E 009°41'9 9.5
2015-Mar-25 09:33N 44°03' E 009°51'3 2.9
2015-Mar-25 08:33N 44°06' E 009°49'  

Dump ship's entire track history